Time;durP1;ratioP1;P1;durP2;ratioP2;P2;SDS_P1;SDS_P2;PMS_P1;PMS_P2;Temp;Humidity;BMP_temperature;BMP_pressure;BME280_temperature;BME280_humidity;BME280_pressure;Samples;Min_cycle;Max_cycle;Signal;HPM_P1;HPM_P2
2023/03/21 00:01:22;;;;;;;10.33;4.10;;;;;;;10.51;59.67;100174.97;5038851;28;20029;-65
2023/03/21 00:03:48;;;;;;;8.47;3.50;;;;;;;10.47;59.89;100174.09;5037646;28;20029;-65
2023/03/21 00:06:13;;;;;;;9.98;3.78;;;;;;;10.44;60.08;100168.84;5039129;28;20025;-65
2023/03/21 00:08:40;;;;;;;7.80;3.80;;;;;;;10.43;59.90;100175.00;5038846;28;20025;-65
2023/03/21 00:11:07;;;;;;;9.38;4.28;;;;;;;10.42;59.92;100169.72;5038924;28;20038;-65
2023/03/21 00:13:37;;;;;;;11.00;3.55;;;;;;;10.40;60.31;100166.19;5038779;28;20053;-65
2023/03/21 00:16:17;;;;;;;8.90;3.50;;;;;;;10.32;60.60;100159.22;5038646;28;20021;-65
2023/03/21 00:18:45;;;;;;;9.57;3.65;;;;;;;10.31;60.25;100154.84;5037512;28;20108;-65
2023/03/21 00:21:14;;;;;;;8.83;3.50;;;;;;;10.31;60.30;100167.09;5038925;28;20060;-65
2023/03/21 00:23:40;;;;;;;8.77;3.47;;;;;;;10.29;60.16;100160.97;5038454;28;20064;-65
2023/03/21 00:26:08;;;;;;;6.95;3.40;;;;;;;10.26;60.13;100153.97;5038873;28;20026;-65
2023/03/21 00:28:39;;;;;;;8.45;3.38;;;;;;;10.19;60.54;100153.13;5037162;28;20052;-65
2023/03/21 00:31:05;;;;;;;9.43;3.53;;;;;;;10.11;60.78;100154.03;5038188;28;20025;-65
2023/03/21 00:33:31;;;;;;;10.03;3.53;;;;;;;10.07;60.71;100157.56;5038355;28;20052;-65
2023/03/21 00:35:56;;;;;;;8.98;3.58;;;;;;;10.01;61.09;100155.81;5038567;28;20440;-65
2023/03/21 00:38:23;;;;;;;9.33;3.23;;;;;;;9.98;61.26;100164.59;5037598;28;20103;-65
2023/03/21 00:40:49;;;;;;;11.40;3.88;;;;;;;9.93;60.98;100168.13;5038394;28;20393;-65
2023/03/21 00:43:22;;;;;;;8.18;3.95;;;;;;;9.88;61.39;100170.78;5038344;28;20032;-65
2023/03/21 00:45:48;;;;;;;13.23;4.10;;;;;;;9.86;61.63;100169.91;5038287;28;20798;-65
2023/03/21 00:48:14;;;;;;;9.40;4.00;;;;;;;9.79;61.83;100162.91;5038168;28;20025;-65
2023/03/21 00:50:41;;;;;;;10.18;3.80;;;;;;;9.71;61.60;100165.56;5038215;28;20041;-65
2023/03/21 00:53:06;;;;;;;10.53;4.03;;;;;;;9.68;61.97;100169.06;5038226;28;20108;-65
2023/03/21 00:55:32;;;;;;;9.55;4.32;;;;;;;9.66;61.74;100170.81;5052192;28;20065;-65
2023/03/21 00:57:58;;;;;;;12.15;4.20;;;;;;;9.62;62.23;100169.09;5045096;28;20030;-65
2023/03/21 01:00:24;;;;;;;9.30;3.90;;;;;;;9.58;62.54;100172.59;5037657;28;20022;-65
2023/03/21 01:02:55;;;;;;;10.43;4.07;;;;;;;9.56;62.61;100176.97;5057148;28;20017;-65
2023/03/21 01:08:15;;;;;;;10.40;4.28;;;;;;;9.44;63.01;100178.72;5038085;28;20052;-65
2023/03/21 01:10:43;;;;;;;8.95;4.03;;;;;;;9.42;62.56;100175.22;5037628;28;20409;-65
2023/03/21 01:13:10;;;;;;;10.15;4.25;;;;;;;9.39;63.17;100164.72;5037722;28;20909;-65
2023/03/21 01:15:41;;;;;;;12.55;4.35;;;;;;;9.39;62.87;100169.97;5037487;28;20021;-65
2023/03/21 01:18:06;;;;;;;9.13;4.23;;;;;;;9.43;62.76;100161.22;5037740;28;20029;-65
2023/03/21 01:20:31;;;;;;;11.75;4.40;;;;;;;9.47;62.67;100159.47;5036224;28;21321;-65
2023/03/21 01:22:57;;;;;;;10.93;3.93;;;;;;;9.49;62.37;100157.72;5037606;28;20084;-65
2023/03/21 01:25:22;;;;;;;10.33;3.53;;;;;;;9.53;62.38;100153.34;5037538;28;20040;-65
2023/03/21 01:27:48;;;;;;;8.67;3.53;;;;;;;9.53;62.50;100154.19;5036134;28;20029;-65
2023/03/21 01:30:13;;;;;;;11.50;4.13;;;;;;;9.54;62.39;100145.44;5037172;28;20516;-65
2023/03/21 01:32:39;;;;;;;9.15;3.38;;;;;;;9.54;62.19;100150.69;5037146;28;20509;-65
2023/03/21 01:35:05;;;;;;;11.30;4.07;;;;;;;9.53;62.18;100137.56;5037243;28;20167;-65
2023/03/21 01:37:31;;;;;;;8.90;3.40;;;;;;;9.52;62.12;100133.16;5037477;28;20014;-65
2023/03/21 01:39:56;;;;;;;8.82;3.78;;;;;;;9.48;62.40;100135.78;5037082;28;20498;-65
2023/03/21 01:42:22;;;;;;;9.40;3.70;;;;;;;9.51;62.11;100129.66;5037223;28;20441;-65
2023/03/21 01:45:29;;;;;;;9.40;3.70;;;;;;;9.50;62.91;100130.53;5037163;28;20025;-65
2023/03/21 01:47:54;;;;;;;9.00;3.70;;;;;;;9.46;62.15;100129.66;5036929;28;20017;-65
2023/03/21 01:50:22;;;;;;;9.00;3.87;;;;;;;9.44;62.20;100115.66;5037499;28;20063;-65
2023/03/21 01:52:48;;;;;;;10.35;3.25;;;;;;;9.42;62.25;100108.66;5054214;28;20088;-65
2023/03/21 01:55:15;;;;;;;8.68;3.58;;;;;;;9.41;62.11;100097.25;5057184;28;20021;-65
2023/03/21 01:57:46;;;;;;;9.57;3.95;;;;;;;9.39;62.23;100101.66;5046034;28;20506;-65
2023/03/21 02:00:12;;;;;;;11.07;3.80;;;;;;;9.37;62.22;100092.91;5036811;28;20030;-65
2023/03/21 02:02:54;;;;;;;7.85;3.58;;;;;;;9.34;62.69;100101.66;5054992;28;20096;-65
2023/03/21 02:05:36;;;;;;;9.55;3.63;;;;;;;9.32;62.49;100099.91;5041166;28;20507;-65
2023/03/21 02:08:02;;;;;;;8.93;3.40;;;;;;;9.28;62.15;100103.41;5037079;28;20029;-65
2023/03/21 02:10:30;;;;;;;9.27;3.80;;;;;;;9.25;62.19;100103.41;5036843;28;20563;-65
2023/03/21 02:13:08;;;;;;;10.07;3.70;;;;;;;9.21;61.96;100102.56;5036903;28;20478;-65
2023/03/21 02:15:37;;;;;;;8.35;3.58;;;;;;;9.17;62.24;100099.06;5036740;28;20152;-65
2023/03/21 02:18:30;;;;;;;7.50;3.17;;;;;;;9.11;62.10;100091.19;5036889;28;20032;-65
2023/03/21 02:23:44;;;;;;;9.57;4.07;;;;;;;9.03;62.32;100087.66;5045587;28;20025;-65
2023/03/21 02:26:31;;;;;;;9.50;3.85;;;;;;;8.98;62.00;100079.81;5054243;28;20017;-65
2023/03/21 02:29:03;;;;;;;6.63;3.13;;;;;;;8.95;62.13;100084.19;5036765;28;20025;-65
2023/03/21 02:31:48;;;;;;;10.87;3.87;;;;;;;8.87;62.16;100092.94;5036260;28;20036;-65
2023/03/21 02:34:52;;;;;;;9.75;3.60;;;;;;;8.81;62.64;100092.94;5036618;28;20026;-65
2023/03/21 02:37:38;;;;;;;7.35;3.47;;;;;;;8.75;62.61;100095.56;5016506;28;20127;-65
2023/03/21 02:40:09;;;;;;;8.43;3.53;;;;;;;8.69;62.54;100095.56;5036639;28;20025;-65
2023/03/21 02:42:53;;;;;;;9.95;4.28;;;;;;;8.67;62.93;100105.19;5036548;28;20025;-65
2023/03/21 02:45:44;;;;;;;9.13;3.50;;;;;;;8.65;62.82;100096.44;5036594;28;20037;-65
2023/03/21 02:48:16;;;;;;;10.27;3.50;;;;;;;8.63;62.39;100099.03;5043606;28;20670;-65
2023/03/21 02:50:51;;;;;;;8.35;3.55;;;;;;;8.60;62.44;100099.94;5074430;28;20033;-65
2023/03/21 02:53:20;;;;;;;7.93;3.55;;;;;;;8.53;62.57;100099.91;5036635;28;20030;-65
2023/03/21 02:55:48;;;;;;;7.75;3.63;;;;;;;8.46;62.59;100091.13;5036589;28;20037;-65
2023/03/21 02:58:20;;;;;;;6.87;3.27;;;;;;;8.44;62.63;100090.25;5036203;28;20029;-65
2023/03/21 03:00:47;;;;;;;8.93;3.30;;;;;;;8.41;62.36;100090.25;5040431;28;20033;-65
2023/03/21 03:03:13;;;;;;;7.90;3.55;;;;;;;8.39;62.52;100094.59;5059151;28;20028;-65
2023/03/21 03:05:52;;;;;;;8.80;3.92;;;;;;;8.37;63.57;100101.59;5041747;28;20033;-65
2023/03/21 03:08:17;;;;;;;11.33;3.90;;;;;;;8.30;63.13;100095.47;5040320;28;20397;-65
2023/03/21 03:10:52;;;;;;;9.85;3.80;;;;;;;8.28;63.07;100103.31;5038673;28;20045;-65
2023/03/21 03:13:40;;;;;;;9.20;3.67;;;;;;;8.29;64.17;100099.81;5040323;28;20034;-65
2023/03/21 03:16:30;;;;;;;12.77;3.83;;;;;;;8.30;63.83;100098.09;5040002;28;20022;-65
2023/03/21 03:18:59;;;;;;;7.97;3.03;;;;;;;8.30;63.04;100095.47;5040040;28;20543;-65
2023/03/21 03:21:31;;;;;;;8.10;3.60;;;;;;;8.28;63.19;100098.06;5040171;28;20034;-65
2023/03/21 03:24:03;;;;;;;8.75;4.07;;;;;;;8.29;63.03;100093.72;5040235;28;20033;-65
2023/03/21 03:26:53;;;;;;;8.23;3.90;;;;;;;8.28;62.99;100095.44;5039924;28;20095;-65
2023/03/21 03:29:20;;;;;;;8.32;3.63;;;;;;;8.24;63.58;100095.44;5039935;28;20029;-65
2023/03/21 03:32:27;;;;;;;10.02;4.20;;;;;;;8.21;64.12;100096.31;5039284;28;20041;-65
2023/03/21 03:34:56;;;;;;;8.50;4.10;;;;;;;8.18;63.79;100086.66;5033499;28;20072;-65
2023/03/21 03:37:28;;;;;;;8.15;3.60;;;;;;;8.18;63.32;100086.66;5039529;28;20116;-65
2023/03/21 03:40:10;;;;;;;8.40;4.10;;;;;;;8.18;63.88;100078.78;5039649;28;20029;-65
2023/03/21 03:42:44;;;;;;;6.95;3.55;;;;;;;8.14;63.79;100082.28;5040593;28;20401;-65
2023/03/21 03:45:10;;;;;;;9.57;4.18;;;;;;;8.09;63.62;100093.66;5047965;28;20032;-65
2023/03/21 03:48:11;;;;;;;10.55;4.10;;;;;;;8.10;64.91;100098.03;5039494;28;20083;-65
2023/03/21 03:50:47;;;;;;;10.70;3.70;;;;;;;8.10;64.12;100098.91;5039475;28;20108;-65
2023/03/21 03:53:16;;;;;;;8.00;4.07;;;;;;;8.12;64.17;100101.53;5039536;28;20033;-65
2023/03/21 03:55:43;;;;;;;9.00;4.07;;;;;;;8.11;63.76;100110.28;5039578;28;20037;-65
2023/03/21 03:58:09;;;;;;;9.80;4.10;;;;;;;8.09;63.69;100112.03;5039156;28;20038;-65
2023/03/21 04:00:36;;;;;;;9.18;4.10;;;;;;;8.02;64.10;100111.97;5040920;28;20029;-65
2023/03/21 04:03:01;;;;;;;8.10;3.60;;;;;;;7.96;64.36;100111.09;5059421;28;20037;-65
2023/03/21 04:05:27;;;;;;;8.38;3.97;;;;;;;7.93;64.33;100109.31;5042332;28;20037;-65
2023/03/21 04:07:53;;;;;;;9.97;4.43;;;;;;;7.92;63.54;100110.19;5039223;28;20029;-65
2023/03/21 04:10:20;;;;;;;8.57;3.83;;;;;;;7.90;63.57;100112.78;5039104;28;20049;-65
2023/03/21 04:12:45;;;;;;;7.95;3.70;;;;;;;7.88;64.03;100113.69;5038174;28;20034;-65
2023/03/21 04:15:11;;;;;;;9.10;4.40;;;;;;;7.86;64.17;100115.41;5037850;28;20047;-65
2023/03/21 04:17:38;;;;;;;11.18;4.05;;;;;;;7.83;63.70;100115.38;5039251;28;20033;-65
2023/03/21 04:20:05;;;;;;;8.73;3.60;;;;;;;7.76;63.76;100115.34;5037940;28;20036;-65
2023/03/21 04:22:32;;;;;;;8.70;3.65;;;;;;;7.76;64.40;100120.59;5038959;28;20032;-65
2023/03/21 04:25:00;;;;;;;9.18;3.75;;;;;;;7.73;63.98;100112.72;5038906;28;20116;-65
2023/03/21 04:27:26;;;;;;;9.85;3.70;;;;;;;7.72;64.02;100124.06;5039018;28;20029;-65
2023/03/21 04:29:51;;;;;;;10.43;4.18;;;;;;;7.73;64.37;100130.22;5038558;28;20037;-65
2023/03/21 04:32:18;;;;;;;8.10;3.57;;;;;;;7.72;64.00;100129.31;5038518;28;20474;-65
2023/03/21 04:34:48;;;;;;;8.90;3.70;;;;;;;7.72;64.27;100131.94;5038773;28;20104;-65
2023/03/21 04:37:15;;;;;;;12.80;3.87;;;;;;;7.69;63.55;100131.94;5038703;28;20025;-65
2023/03/21 04:39:41;;;;;;;9.35;3.95;;;;;;;7.66;63.48;100131.91;5042514;28;20152;-64
2023/03/21 04:42:07;;;;;;;12.07;4.05;;;;;;;7.64;64.17;100140.63;5043780;28;20103;-65
2023/03/21 04:44:32;;;;;;;8.67;4.00;;;;;;;7.62;64.02;100138.00;5038442;28;20040;-65
2023/03/21 04:46:58;;;;;;;11.83;4.00;;;;;;;7.61;64.17;100144.13;5038501;28;20025;-65
2023/03/21 04:49:23;;;;;;;9.02;4.00;;;;;;;7.56;63.98;100154.56;5038396;28;20706;-65
2023/03/21 04:51:48;;;;;;;8.87;4.20;;;;;;;7.50;63.61;100148.41;5037075;28;20033;-65
2023/03/21 04:54:14;;;;;;;9.93;3.87;;;;;;;7.46;64.33;100142.25;5038347;28;20079;-65
2023/03/21 04:56:39;;;;;;;9.50;3.73;;;;;;;7.43;63.89;100150.09;5038215;28;20045;-65
2023/03/21 04:59:11;;;;;;;9.77;4.47;;;;;;;7.39;64.12;100143.97;5036779;28;20040;-65
2023/03/21 05:01:37;;;;;;;13.00;4.60;;;;;;;7.40;64.75;100142.22;5048007;28;20099;-65
2023/03/21 05:04:03;;;;;;;7.97;4.00;;;;;;;7.35;64.47;100134.31;5053050;28;20481;-65
2023/03/21 05:06:29;;;;;;;9.43;3.88;;;;;;;7.31;64.49;100132.53;5038161;28;20029;-65
2023/03/21 05:08:58;;;;;;;7.80;3.50;;;;;;;7.26;64.98;100136.88;5038147;28;20029;-65
2023/03/21 05:11:25;;;;;;;12.25;4.35;;;;;;;7.25;64.75;100140.38;5038063;28;20076;-65
2023/03/21 05:13:50;;;;;;;8.07;3.63;;;;;;;7.20;64.34;100137.72;5037938;28;20410;-65
2023/03/21 05:16:16;;;;;;;10.30;4.00;;;;;;;7.15;65.09;100137.69;5038148;28;20030;-65
2023/03/21 05:18:41;;;;;;;10.57;4.87;;;;;;;7.09;65.24;100142.84;5037965;28;20103;-65
2023/03/21 05:21:09;;;;;;;10.15;4.20;;;;;;;7.04;65.24;100147.19;5038142;28;20103;-65
2023/03/21 05:23:37;;;;;;;8.73;3.90;;;;;;;7.00;66.51;100158.50;5036744;28;20474;-65
2023/03/21 05:26:11;;;;;;;11.30;4.70;;;;;;;7.00;65.78;100163.75;5036760;28;20021;-65
2023/03/21 05:28:38;;;;;;;11.57;5.10;;;;;;;7.00;65.73;100172.47;5037567;28;20121;-65
2023/03/21 05:31:05;;;;;;;11.55;4.80;;;;;;;7.01;65.75;100170.72;5037379;28;20203;-65
2023/03/21 05:33:31;;;;;;;12.55;4.60;;;;;;;6.99;65.87;100182.94;5037492;28;20080;-65
2023/03/21 05:35:57;;;;;;;13.13;4.73;;;;;;;6.95;66.32;100178.53;5038971;28;20108;-65
2023/03/21 05:38:23;;;;;;;11.45;4.35;;;;;;;6.91;66.73;100185.47;5037255;28;20556;-65
2023/03/21 05:40:49;;;;;;;9.88;4.18;;;;;;;6.92;67.06;100181.13;5037732;28;20560;-65
2023/03/21 05:43:15;;;;;;;9.93;4.25;;;;;;;6.93;66.19;100177.63;5037306;28;20021;-65
2023/03/21 05:45:41;;;;;;;7.87;3.80;;;;;;;6.95;66.33;100179.38;5037459;28;20039;-65
2023/03/21 05:48:06;;;;;;;9.20;4.22;;;;;;;6.99;66.39;100186.44;5036033;28;20029;-65
2023/03/21 05:50:32;;;;;;;12.00;4.10;;;;;;;6.99;66.17;100186.44;5037254;28;20116;-65
2023/03/21 05:52:57;;;;;;;12.67;4.37;;;;;;;6.99;66.42;100190.78;5037076;28;20037;-65
2023/03/21 05:55:23;;;;;;;15.40;4.80;;;;;;;6.98;66.41;100192.50;5037399;28;20029;-65
2023/03/21 05:57:48;;;;;;;9.85;4.05;;;;;;;6.98;66.43;100192.50;5037008;28;20029;-65
2023/03/21 06:00:14;;;;;;;9.20;4.07;;;;;;;7.02;65.97;100198.66;5036833;28;20095;-65
2023/03/21 06:02:40;;;;;;;10.20;3.83;;;;;;;7.03;65.53;100195.19;5037080;28;20064;-65
2023/03/21 06:05:06;;;;;;;11.50;4.38;;;;;;;7.05;66.78;100193.44;5037139;28;20029;-65
2023/03/21 06:07:32;;;;;;;9.97;4.30;;;;;;;7.03;65.85;100208.28;5036979;28;20057;-65
2023/03/21 06:09:58;;;;;;;11.00;4.50;;;;;;;6.99;65.84;100220.47;5036908;28;20053;-65
2023/03/21 06:12:23;;;;;;;8.90;4.30;;;;;;;7.00;65.99;100216.09;5036766;28;20040;-65
2023/03/21 06:14:49;;;;;;;14.60;4.80;;;;;;;7.02;66.42;100209.13;5037094;28;20068;-65
2023/03/21 06:17:14;;;;;;;9.87;4.20;;;;;;;7.04;66.19;100220.50;5036723;28;20524;-65
2023/03/21 06:19:40;;;;;;;11.17;4.90;;;;;;;7.08;65.80;100221.41;5037085;28;20031;-65
2023/03/21 06:22:05;;;;;;;12.20;4.20;;;;;;;7.10;65.77;100232.78;5036723;28;20026;-65
2023/03/21 06:24:31;;;;;;;8.60;4.40;;;;;;;7.12;66.57;100234.56;5036664;28;20037;-65
2023/03/21 06:26:56;;;;;;;12.27;4.83;;;;;;;7.25;65.46;100234.66;5036802;28;20029;-65
2023/03/21 06:29:22;;;;;;;11.75;5.72;;;;;;;7.34;65.74;100237.34;5036800;28;20025;-65
2023/03/21 06:31:47;;;;;;;15.70;6.30;;;;;;;7.41;65.92;100236.56;5040766;28;20059;-65
2023/03/21 06:34:12;;;;;;;11.93;5.70;;;;;;;7.43;65.82;100249.66;5041011;28;20018;-65
2023/03/21 06:36:38;;;;;;;12.03;5.67;;;;;;;7.40;66.05;100245.28;5036042;28;20080;-65
2023/03/21 06:39:06;;;;;;;12.23;5.77;;;;;;;7.37;66.54;100247.88;5035771;28;20076;-65
2023/03/21 06:41:31;;;;;;;14.20;6.18;;;;;;;7.37;65.95;100245.25;5044512;28;20025;-65
2023/03/21 06:43:56;;;;;;;13.70;5.87;;;;;;;7.38;65.82;100254.88;5036797;28;20021;-65
2023/03/21 06:46:22;;;;;;;15.37;5.63;;;;;;;7.41;66.21;100249.66;5036326;28;20260;-65
2023/03/21 06:48:47;;;;;;;12.20;5.70;;;;;;;7.46;66.07;100252.28;5036849;28;20028;-65
2023/03/21 06:51:14;;;;;;;11.13;4.97;;;;;;;7.53;66.18;100253.22;5030682;28;20022;-65
2023/03/21 06:53:40;;;;;;;12.55;5.28;;;;;;;7.57;66.26;100255.91;5031607;28;20088;-64
2023/03/21 06:56:07;;;;;;;11.25;5.00;;;;;;;7.64;65.90;100259.44;5036728;28;20032;-65
2023/03/21 06:58:32;;;;;;;12.82;4.72;;;;;;;7.67;66.12;100264.72;5036193;28;20033;-64
2023/03/21 07:01:00;;;;;;;12.93;4.50;;;;;;;7.71;65.97;100265.59;5024212;28;20571;-64
2023/03/21 07:03:26;;;;;;;11.35;4.20;;;;;;;7.72;65.78;100243.78;5036439;28;20143;-64
2023/03/21 07:05:51;;;;;;;11.73;4.53;;;;;;;7.72;65.59;100242.03;5030193;28;20056;-65
2023/03/21 07:10:43;;;;;;;15.55;4.88;;;;;;;7.83;66.01;100242.09;5031867;28;20054;-64
2023/03/21 07:13:09;;;;;;;12.68;5.20;;;;;;;7.90;65.79;100237.78;5034955;28;20501;-64
2023/03/21 07:15:37;;;;;;;10.63;4.65;;;;;;;7.95;65.54;100240.41;5034418;28;20036;-64
2023/03/21 07:18:07;;;;;;;11.27;4.20;;;;;;;7.98;65.54;100235.22;5045903;28;20029;-64
2023/03/21 07:20:34;;;;;;;11.27;4.72;;;;;;;8.09;65.63;100237.91;5037963;28;20029;-64
2023/03/21 07:22:59;;;;;;;12.68;4.63;;;;;;;8.16;65.80;100239.69;5034739;28;20109;-64
2023/03/21 07:25:25;;;;;;;11.47;4.07;;;;;;;8.21;65.74;100227.47;5035360;28;20049;-64
2023/03/21 07:27:51;;;;;;;13.35;4.75;;;;;;;8.25;65.98;100239.72;5037588;28;20032;-64
2023/03/21 07:30:16;;;;;;;12.70;4.60;;;;;;;8.30;65.65;100242.38;5037399;28;20021;-65
2023/03/21 07:32:44;;;;;;;13.07;4.40;;;;;;;8.33;66.72;100243.28;5052551;28;20017;-65
2023/03/21 07:35:11;;;;;;;10.57;4.32;;;;;;;8.40;65.97;100238.06;5036073;28;20038;-65
2023/03/21 07:37:37;;;;;;;12.57;4.55;;;;;;;8.46;66.57;100240.69;5039757;28;20075;-65
2023/03/21 07:40:09;;;;;;;13.80;4.50;;;;;;;8.52;66.26;100253.88;5055755;28;20083;-65
2023/03/21 07:42:39;;;;;;;11.90;4.63;;;;;;;8.55;66.64;100253.88;5037284;28;20026;-65
2023/03/21 07:45:06;;;;;;;9.88;4.40;;;;;;;8.63;66.66;100266.19;5036052;28;20080;-65
2023/03/21 07:47:33;;;;;;;11.52;4.00;;;;;;;8.67;66.54;100273.19;5036559;28;20049;-65
2023/03/21 07:49:58;;;;;;;14.63;4.83;;;;;;;8.71;66.60;100267.06;5038411;28;20033;-65
2023/03/21 07:52:24;;;;;;;11.13;4.25;;;;;;;8.72;66.60;100268.81;5039465;28;20031;-65
2023/03/21 07:54:50;;;;;;;13.10;5.22;;;;;;;8.77;67.38;100269.72;5039542;28;20397;-65
2023/03/21 07:57:16;;;;;;;12.53;4.40;;;;;;;8.84;67.02;100271.50;5039333;28;20076;-65
2023/03/21 07:59:41;;;;;;;10.82;4.43;;;;;;;8.93;66.63;100275.03;5039532;28;20493;-65
2023/03/21 08:02:12;;;;;;;14.37;4.57;;;;;;;8.98;66.63;100286.41;5057576;28;20083;-65
2023/03/21 08:04:37;;;;;;;13.40;5.60;;;;;;;9.04;66.94;100291.66;5049305;28;20048;-65
2023/03/21 08:07:03;;;;;;;11.73;5.00;;;;;;;9.05;67.30;100285.56;5039305;28;20060;-65
2023/03/21 08:09:28;;;;;;;12.03;5.00;;;;;;;9.12;67.17;100291.69;5039051;28;20026;-65
2023/03/21 08:11:54;;;;;;;12.13;4.40;;;;;;;9.23;67.10;100291.72;5039089;28;20029;-65
2023/03/21 08:14:19;;;;;;;8.85;3.97;;;;;;;9.44;66.42;100291.75;5039532;28;20026;-65
2023/03/21 08:16:45;;;;;;;10.77;3.50;;;;;;;9.63;66.14;100305.78;5038854;28;20033;-65
2023/03/21 08:19:10;;;;;;;9.43;3.87;;;;;;;9.83;65.85;100312.81;5039206;28;20022;-65
2023/03/21 08:21:38;;;;;;;10.37;3.93;;;;;;;9.92;65.44;100306.66;5039155;28;20037;-65
2023/03/21 08:24:03;;;;;;;8.20;3.63;;;;;;;9.98;65.39;100296.13;5040454;28;20036;-65
2023/03/21 08:26:30;;;;;;;8.27;3.75;;;;;;;10.06;65.16;100296.13;5057688;28;20028;-65
2023/03/21 08:28:56;;;;;;;12.82;4.03;;;;;;;10.15;64.78;100305.75;5049014;28;20025;-65
2023/03/21 08:31:21;;;;;;;8.27;3.93;;;;;;;10.28;64.89;100304.88;5038516;28;20555;-65
2023/03/21 08:33:49;;;;;;;11.30;3.80;;;;;;;10.44;64.31;100320.63;5038819;28;20053;-65
2023/03/21 08:36:15;;;;;;;11.23;3.92;;;;;;;10.61;64.06;100320.63;5038836;28;20045;-65
2023/03/21 08:38:40;;;;;;;9.57;3.90;;;;;;;10.75;64.06;100320.56;5038886;28;20505;-65
2023/03/21 08:41:06;;;;;;;14.10;3.93;;;;;;;10.81;63.64;100323.16;5038614;28;20037;-65
2023/03/21 08:43:31;;;;;;;13.30;4.03;;;;;;;10.86;64.14;100326.66;5038854;28;20024;-65
2023/03/21 08:45:57;;;;;;;12.53;4.00;;;;;;;10.95;63.41;100319.56;5038538;28;20036;-65
2023/03/21 08:48:22;;;;;;;11.13;3.47;;;;;;;10.98;63.25;100319.59;5038520;28;20100;-65
2023/03/21 08:50:48;;;;;;;13.20;4.87;;;;;;;11.05;63.73;100322.16;5038698;28;20044;-65
2023/03/21 08:53:13;;;;;;;11.73;3.90;;;;;;;11.13;63.72;100310.72;5038527;28;20030;-65
2023/03/21 08:55:39;;;;;;;15.23;4.37;;;;;;;11.26;63.19;100308.88;5037210;28;20044;-65
2023/03/21 08:58:05;;;;;;;12.87;4.30;;;;;;;11.29;62.81;100314.13;5037800;28;20402;-65
2023/03/21 09:00:31;;;;;;;18.33;4.18;;;;;;;11.36;62.77;100321.13;5037321;28;20027;-65
2023/03/21 09:02:57;;;;;;;10.10;4.38;;;;;;;11.47;62.85;100308.75;5058443;28;20088;-65
2023/03/21 09:05:25;;;;;;;12.45;3.97;;;;;;;11.58;62.24;100303.41;5041789;28;20025;-65
2023/03/21 09:07:51;;;;;;;11.60;3.73;;;;;;;11.74;61.84;100304.16;5038268;28;20029;-65
2023/03/21 09:10:18;;;;;;;10.65;4.30;;;;;;;11.95;61.69;100306.59;5038196;28;20469;-65
2023/03/21 09:12:44;;;;;;;12.90;4.03;;;;;;;12.20;61.13;100312.56;5038291;28;20033;-65
2023/03/21 09:15:11;;;;;;;10.63;4.33;;;;;;;12.38;60.89;100308.84;5037869;28;20031;-65
2023/03/21 09:17:41;;;;;;;9.70;3.70;;;;;;;12.54;60.65;100317.47;5038222;28;20060;-65
2023/03/21 09:20:19;;;;;;;11.50;4.18;;;;;;;12.68;60.30;100308.53;5039125;28;20033;-65
2023/03/21 09:22:46;;;;;;;11.27;3.90;;;;;;;12.77;59.72;100314.53;5048497;28;20021;-65
2023/03/21 09:25:14;;;;;;;13.60;3.90;;;;;;;12.82;59.70;100311.84;5057729;28;20035;-65
2023/03/21 09:27:39;;;;;;;9.87;3.50;;;;;;;12.84;59.68;100310.06;5058177;28;20025;-65
2023/03/21 09:30:06;;;;;;;9.98;3.72;;;;;;;12.87;59.25;100310.00;5038085;28;20485;-65
2023/03/21 09:32:33;;;;;;;10.37;3.90;;;;;;;12.87;59.25;100309.16;5037591;28;20025;-65
2023/03/21 09:34:58;;;;;;;7.20;3.30;;;;;;;12.86;59.31;100308.28;5036363;28;20048;-65
2023/03/21 09:37:24;;;;;;;7.33;3.43;;;;;;;12.83;59.39;100308.31;5037603;28;20025;-65
2023/03/21 09:39:50;;;;;;;11.07;3.57;;;;;;;12.85;59.36;100306.53;5037751;28;20656;-65
2023/03/21 09:42:54;;;;;;;9.23;3.45;;;;;;;12.82;59.33;100305.72;5037445;28;20018;-65
2023/03/21 09:45:53;;;;;;;9.07;3.63;;;;;;;12.80;59.19;100302.22;5037251;28;20398;-65
2023/03/21 09:48:39;;;;;;;9.88;3.72;;;;;;;12.81;59.46;100311.88;5036251;28;20128;-65
2023/03/21 09:51:11;;;;;;;7.82;3.15;;;;;;;12.85;59.49;100301.25;5037345;28;20079;-65
2023/03/21 09:53:40;;;;;;;7.40;3.13;;;;;;;12.97;59.13;100299.34;5037358;28;20025;-65
2023/03/21 09:56:11;;;;;;;12.80;3.80;;;;;;;13.05;58.47;100305.38;5037343;28;20083;-63
2023/03/21 09:58:42;;;;;;;9.70;3.77;;;;;;;13.12;58.69;100304.41;5037024;28;20063;-65
2023/03/21 10:01:09;;;;;;;9.77;4.28;;;;;;;13.28;58.29;100297.16;5042773;28;20020;-65
2023/03/21 10:03:35;;;;;;;12.13;4.13;;;;;;;13.44;57.73;100286.34;5055995;28;20057;-65
2023/03/21 10:06:12;;;;;;;10.95;4.00;;;;;;;13.53;56.97;100285.34;5037231;28;20078;-65
2023/03/21 10:08:44;;;;;;;12.75;3.60;;;;;;;13.60;57.26;100286.97;5037194;28;20021;-65
2023/03/21 10:11:26;;;;;;;11.53;3.60;;;;;;;13.76;57.02;100288.47;5036200;28;20128;-65
2023/03/21 10:14:00;;;;;;;9.43;3.47;;;;;;;13.93;56.90;100282.88;5037006;28;20028;-65
2023/03/21 10:16:30;;;;;;;10.15;4.40;;;;;;;13.94;56.91;100278.47;5038247;28;20025;-65
2023/03/21 10:18:58;;;;;;;9.48;3.90;;;;;;;14.09;56.58;100268.50;5056108;28;20477;-65
2023/03/21 10:21:26;;;;;;;10.52;3.45;;;;;;;14.15;56.35;100271.91;5057016;28;20048;-65
2023/03/21 10:23:54;;;;;;;11.77;3.60;;;;;;;14.20;56.27;100263.88;5056823;28;20055;-65
2023/03/21 10:26:23;;;;;;;10.00;3.97;;;;;;;14.28;56.00;100256.66;5056817;28;20028;-65
2023/03/21 10:28:49;;;;;;;13.43;4.20;;;;;;;14.38;55.96;100267.09;5048106;28;20035;-65
2023/03/21 10:31:18;;;;;;;11.82;4.55;;;;;;;14.42;56.13;100263.47;5036764;28;20026;-65
2023/03/21 10:33:46;;;;;;;12.52;4.13;;;;;;;14.62;55.59;100266.59;5036763;28;20029;-65
2023/03/21 10:36:24;;;;;;;11.57;3.90;;;;;;;14.83;54.94;100269.72;5036683;28;20116;-65
2023/03/21 10:38:55;;;;;;;9.88;4.13;;;;;;;14.91;54.45;100262.47;5036883;28;20127;-65
2023/03/21 10:41:20;;;;;;;9.80;4.43;;;;;;;15.11;54.43;100253.19;5036689;28;20555;-65
2023/03/21 10:44:02;;;;;;;13.13;4.80;;;;;;;15.20;54.80;100268.88;5037015;28;20022;-65
2023/03/21 10:46:27;;;;;;;10.30;3.60;;;;;;;15.33;54.42;100276.56;5036484;28;20741;-65
2023/03/21 10:48:53;;;;;;;11.45;4.00;;;;;;;15.50;54.42;100287.63;5036904;28;20087;-64
2023/03/21 10:51:24;;;;;;;10.70;3.80;;;;;;;15.74;54.04;100285.28;5036686;28;20053;-64
2023/03/21 10:54:14;;;;;;;10.82;4.03;;;;;;;16.04;53.06;100284.56;5035333;28;20037;-64
2023/03/21 10:56:49;;;;;;;14.43;3.38;;;;;;;16.31;52.43;100276.75;5036449;28;20150;-65
2023/03/21 10:59:19;;;;;;;8.63;2.63;;;;;;;16.44;52.23;100279.94;5036451;28;20052;-65
2023/03/21 11:01:51;;;;;;;7.32;2.35;;;;;;;16.60;51.99;100273.28;5047576;28;20021;-62
2023/03/21 11:04:21;;;;;;;9.10;3.10;;;;;;;16.75;51.41;100265.75;5049542;28;20052;-64
2023/03/21 11:07:06;;;;;;;7.32;2.47;;;;;;;16.81;50.74;100262.03;5036582;28;20401;-65
2023/03/21 11:09:48;;;;;;;6.82;2.75;;;;;;;16.93;50.93;100262.53;5025035;28;20097;-65
2023/03/21 11:12:15;;;;;;;9.97;2.73;;;;;;;17.19;50.81;100279.50;5036385;28;20371;-63
2023/03/21 11:14:47;;;;;;;7.55;3.35;;;;;;;17.35;50.17;100268.38;5048736;28;20048;-65
2023/03/21 11:17:16;;;;;;;8.13;2.80;;;;;;;17.49;50.59;100268.81;5056119;28;20033;-65
2023/03/21 11:19:50;;;;;;;8.00;3.00;;;;;;;17.70;50.41;100263.69;5056573;28;20039;-65
2023/03/21 11:22:20;;;;;;;6.93;2.80;;;;;;;17.99;50.27;100253.84;5058503;28;20075;-65
2023/03/21 11:24:52;;;;;;;6.73;2.80;;;;;;;18.25;49.79;100262.72;5060073;28;20032;-63
2023/03/21 11:27:18;;;;;;;9.15;3.22;;;;;;;18.45;49.40;100245.13;5060327;28;20031;-63
2023/03/21 11:29:50;;;;;;;5.22;2.60;;;;;;;18.51;49.11;100247.56;5043324;28;20033;-65
2023/03/21 11:32:31;;;;;;;8.57;2.90;;;;;;;18.55;48.64;100246.50;5040340;28;20036;-65
2023/03/21 11:35:17;;;;;;;8.32;2.70;;;;;;;18.63;48.03;100244.41;5037702;28;20036;-63
2023/03/21 11:37:46;;;;;;;9.10;2.90;;;;;;;18.62;48.50;100232.00;5039420;28;20045;-63
2023/03/21 11:40:35;;;;;;;9.55;3.00;;;;;;;18.60;48.44;100238.34;5040206;28;20036;-65
2023/03/21 11:43:00;;;;;;;7.10;2.90;;;;;;;18.76;48.42;100235.97;5056035;28;20031;-63
2023/03/21 11:45:28;;;;;;;7.40;3.07;;;;;;;18.90;47.91;100230.94;5059794;28;20060;-63